createdAt,value
2019-02-12T00:01:10.232Z,6.33
2019-02-12T00:12:54.242Z,8.13
2019-02-12T00:16:38.837Z,7.20
2019-02-12T00:20:23.500Z,6.47
2019-02-12T00:24:01.144Z,7.37
2019-02-12T00:27:45.786Z,7.90
2019-02-12T00:31:30.409Z,6.67
2019-02-12T00:35:15.069Z,8.43
2019-02-12T00:38:59.765Z,7.60
2019-02-12T00:42:44.685Z,6.73
2019-02-12T00:46:29.304Z,7.73
2019-02-12T00:50:13.911Z,9.33
2019-02-12T00:53:58.542Z,8.30
2019-02-12T00:57:35.389Z,9.17
2019-02-12T01:01:19.978Z,8.40
2019-02-12T01:09:15.256Z,7.50
2019-02-12T01:12:59.963Z,9.43
2019-02-12T01:16:44.627Z,9.30
2019-02-12T01:20:29.267Z,8.47
2019-02-12T01:24:06.162Z,7.33
2019-02-12T01:27:50.745Z,7.83
2019-02-12T01:35:25.654Z,7.67
2019-02-12T01:39:12.270Z,8.00
2019-02-12T01:47:01.173Z,8.57
2019-02-12T01:50:26.740Z,8.77
2019-02-12T01:54:11.361Z,8.63
2019-02-12T01:57:48.310Z,9.33
2019-02-12T02:01:33.525Z,9.13
2019-02-12T02:05:18.128Z,10.57
2019-02-12T02:09:02.761Z,9.57
2019-02-12T02:13:06.219Z,11.53
2019-02-12T02:16:50.859Z,8.87
2019-02-12T02:20:35.467Z,10.23
2019-02-12T02:24:20.056Z,10.10
2019-02-12T02:28:04.732Z,9.90
2019-02-12T02:31:49.660Z,11.33
2019-02-12T02:35:34.294Z,10.47
2019-02-12T02:39:18.965Z,9.10
2019-02-12T02:43:03.837Z,10.07
2019-02-12T02:50:51.962Z,9.90
2019-02-12T02:54:36.581Z,11.07
2019-02-12T02:58:13.891Z,11.20
2019-02-12T03:01:58.607Z,12.40
2019-02-12T03:05:43.663Z,11.63
2019-02-12T03:09:28.364Z,12.83
2019-02-12T03:13:25.582Z,13.03
2019-02-12T03:16:59.656Z,11.70
2019-02-12T03:20:25.219Z,11.00
2019-02-12T03:23:51.159Z,10.03
2019-02-12T03:27:35.963Z,11.20
2019-02-12T03:31:20.585Z,10.77
2019-02-12T03:35:05.956Z,12.03
2019-02-12T03:38:50.572Z,11.37
2019-02-12T03:42:35.277Z,12.23
2019-02-12T03:46:20.303Z,11.00
2019-02-12T03:50:05.224Z,12.67
2019-02-12T03:57:39.546Z,11.50
2019-02-12T04:01:24.177Z,12.60
2019-02-12T04:05:08.859Z,11.90
2019-02-12T04:12:43.713Z,11.97
2019-02-12T04:16:28.342Z,13.20
2019-02-12T04:20:12.928Z,12.50
2019-02-12T04:23:51.216Z,11.87
2019-02-12T04:27:36.002Z,12.50
2019-02-12T04:31:01.587Z,13.07
2019-02-12T04:34:46.214Z,14.73
2019-02-12T04:38:30.814Z,13.43
2019-02-12T04:42:15.453Z,12.43
2019-02-12T04:53:54.282Z,16.77
2019-02-12T04:57:38.873Z,14.90
2019-02-12T05:01:23.878Z,16.07
2019-02-12T05:05:09.680Z,15.47
2019-02-12T05:09:17.386Z,17.30
2019-02-12T05:13:02.049Z,15.87
2019-02-12T05:16:46.694Z,14.93
2019-02-12T05:20:31.279Z,14.67
2019-02-12T05:24:08.433Z,15.73
2019-02-12T05:27:53.147Z,15.80
2019-02-12T05:31:37.782Z,16.73
2019-02-12T05:35:22.669Z,16.83
2019-02-12T05:42:57.692Z,18.03
2019-02-12T05:46:42.370Z,18.50
2019-02-12T05:50:27.038Z,20.50
2019-02-12T05:54:11.936Z,20.63
2019-02-12T05:57:56.581Z,21.30
2019-02-12T06:01:35.550Z,20.23
2019-02-12T06:05:39.218Z,21.37
2019-02-12T06:09:24.209Z,22.80
2019-02-12T06:13:08.856Z,21.93
2019-02-12T06:16:53.552Z,20.83
2019-02-12T06:20:38.399Z,20.50
2019-02-12T06:24:15.612Z,22.37
2019-02-12T06:28:00.305Z,22.17
2019-02-12T06:31:44.958Z,21.17
2019-02-12T06:35:29.614Z,19.50
2019-02-12T06:39:38.924Z,22.13
2019-02-12T06:43:23.548Z,19.90
2019-02-12T06:47:08.177Z,21.57
2019-02-12T06:50:52.813Z,20.33
2019-02-12T06:54:37.427Z,20.00
2019-02-12T06:58:22.030Z,20.17
2019-02-12T07:02:44.839Z,19.97
2019-02-12T07:07:07.644Z,18.23
2019-02-12T07:10:52.813Z,19.23
2019-02-12T07:15:15.860Z,18.87
2019-02-12T07:19:38.907Z,18.43
2019-02-12T07:23:21.598Z,18.67
2019-02-12T07:27:29.883Z,20.63
2019-02-12T07:31:50.057Z,18.37
2019-02-12T07:36:12.821Z,19.97
2019-02-12T07:40:35.590Z,21.00
2019-02-12T07:44:58.599Z,16.27
2019-02-12T07:49:21.466Z,15.23
2019-02-12T07:53:31.603Z,14.93
2019-02-12T07:57:55.751Z,15.63
2019-02-12T08:02:02.494Z,14.63
2019-02-12T08:06:12.514Z,15.53
2019-02-12T08:10:28.371Z,14.30
2019-02-12T08:14:51.135Z,13.50
2019-02-12T08:19:13.904Z,14.13
2019-02-12T08:23:41.221Z,13.10
2019-02-12T08:28:01.157Z,12.97
2019-02-12T08:32:09.641Z,12.87
2019-02-12T08:36:32.430Z,12.90
2019-02-12T08:40:55.217Z,14.83
2019-02-12T08:45:17.963Z,12.90
2019-02-12T08:49:33.719Z,13.53
2019-02-12T08:53:56.455Z,13.20
2019-02-12T08:58:03.597Z,13.87
2019-02-12T09:01:46.387Z,12.90
2019-02-12T09:05:53.375Z,14.13
2019-02-12T09:10:16.157Z,15.23
2019-02-12T09:14:38.926Z,15.97
2019-02-12T09:18:50.332Z,14.57
2019-02-12T09:23:13.160Z,15.93
2019-02-12T09:27:21.724Z,17.77
2019-02-12T09:31:35.805Z,15.43
2019-02-12T09:35:58.564Z,15.87
2019-02-12T09:40:18.612Z,17.00
2019-02-12T09:44:35.179Z,15.53
2019-02-12T09:48:58.194Z,16.33
2019-02-12T09:53:20.963Z,18.00
2019-02-12T09:57:43.785Z,19.20
2019-02-12T10:01:29.117Z,19.27
2019-02-12T10:05:51.990Z,20.07
2019-02-12T10:10:14.740Z,20.90
2019-02-12T10:14:37.527Z,19.97
2019-02-12T10:18:54.745Z,19.00
2019-02-12T10:27:10.567Z,22.83
2019-02-12T10:31:16.730Z,22.37
2019-02-12T10:35:20.217Z,22.80
2019-02-12T10:39:25.450Z,21.60
2019-02-12T10:43:10.426Z,22.57
2019-02-12T10:46:55.338Z,23.60
2019-02-12T10:50:39.989Z,22.30
2019-02-12T10:54:27.975Z,22.20
2019-02-12T10:58:10.953Z,22.63
2019-02-12T11:01:48.212Z,20.40
2019-02-12T11:05:32.811Z,19.13
2019-02-12T11:09:17.715Z,20.57
2019-02-12T11:13:02.353Z,18.73
2019-02-12T11:16:46.991Z,20.93
2019-02-12T11:20:31.968Z,21.07
2019-02-12T11:24:08.879Z,21.17
2019-02-12T11:28:12.552Z,20.40
2019-02-12T11:31:57.430Z,19.43
2019-02-12T11:35:42.048Z,18.13
2019-02-12T11:39:26.654Z,16.73
2019-02-12T11:43:11.283Z,18.23
2019-02-12T11:46:56.228Z,19.53
2019-02-12T11:50:41.198Z,17.93
2019-02-12T11:54:25.822Z,16.00
2019-02-12T11:58:10.759Z,18.17
2019-02-12T12:01:55.357Z,15.70
2019-02-12T12:05:39.963Z,15.70
2019-02-12T12:09:24.607Z,14.60
2019-02-12T12:13:09.618Z,14.20
2019-02-12T12:16:54.211Z,13.87
2019-02-12T12:20:38.874Z,14.93
2019-02-12T12:24:15.959Z,13.70
2019-02-12T12:28:00.557Z,13.03
2019-02-12T12:31:45.199Z,14.63
2019-02-12T12:35:29.826Z,15.43
2019-02-12T12:39:14.475Z,13.07
2019-02-12T12:42:59.081Z,12.47
2019-02-12T12:46:43.678Z,13.37
2019-02-12T12:50:28.317Z,13.27
2019-02-12T12:54:12.931Z,12.50
2019-02-12T12:57:57.567Z,13.40
2019-02-12T13:01:34.762Z,13.27
2019-02-12T13:05:19.366Z,12.57
2019-02-12T13:12:55.359Z,12.83
2019-02-12T13:16:40.263Z,13.23
2019-02-12T13:20:24.951Z,12.57
2019-02-12T13:24:09.573Z,13.73
2019-02-12T13:27:54.562Z,13.67
2019-02-12T13:31:39.263Z,14.67
2019-02-12T13:35:23.857Z,14.47
2019-02-12T13:39:08.481Z,13.73
2019-02-12T13:42:53.899Z,14.70
2019-02-12T13:46:38.903Z,12.93
2019-02-12T13:50:23.518Z,12.03
2019-02-12T13:54:08.173Z,13.43
2019-02-12T13:57:52.786Z,12.30
2019-02-12T14:01:30.021Z,11.23
2019-02-12T14:05:16.257Z,13.37
2019-02-12T14:09:00.815Z,12.82
2019-02-12T14:12:45.448Z,10.88
2019-02-12T14:16:30.062Z,11.00
2019-02-12T14:24:04.872Z,11.68
2019-02-12T14:27:42.463Z,12.37
2019-02-12T14:31:27.439Z,12.03
2019-02-12T14:35:12.382Z,13.65
2019-02-12T14:38:57.053Z,11.15
2019-02-12T14:42:41.704Z,12.07
2019-02-12T14:46:26.326Z,12.18
2019-02-12T14:50:12.087Z,12.30
2019-02-12T14:53:56.814Z,11.12
2019-02-12T14:57:41.395Z,12.93
2019-02-12T15:01:18.212Z,13.00
2019-02-12T15:05:03.099Z,12.03
2019-02-12T15:08:47.823Z,11.93
2019-02-12T15:12:32.441Z,12.33
2019-02-12T15:16:17.048Z,13.00
2019-02-12T15:20:01.685Z,12.13
2019-02-12T15:23:46.326Z,14.55
2019-02-12T15:27:23.314Z,13.15
2019-02-12T15:31:07.964Z,12.85
2019-02-12T15:34:53.917Z,13.58
2019-02-12T15:38:38.539Z,14.30
2019-02-12T15:42:23.226Z,15.10
2019-02-12T15:46:07.927Z,14.77
2019-02-12T15:49:53.192Z,14.57
2019-02-12T15:53:38.097Z,14.13
2019-02-12T15:57:24.761Z,12.53
2019-02-12T16:01:02.341Z,13.77
2019-02-12T16:04:48.670Z,15.20
2019-02-12T16:16:16.088Z,15.67
2019-02-12T16:20:00.720Z,15.20
2019-02-12T16:23:45.329Z,14.97
2019-02-12T16:27:30.455Z,13.87
2019-02-12T16:31:15.089Z,15.17
2019-02-12T16:34:59.697Z,14.07
2019-02-12T16:38:44.302Z,15.20
2019-02-12T16:42:29.218Z,15.50
2019-02-12T16:46:18.354Z,15.73
2019-02-12T16:50:42.546Z,19.47
2019-02-12T16:54:08.282Z,16.93
2019-02-12T16:57:53.378Z,15.87
2019-02-12T17:01:32.740Z,16.37
2019-02-12T17:05:17.686Z,15.13
2019-02-12T17:09:02.309Z,17.30
2019-02-12T17:12:47.864Z,15.20
2019-02-12T17:16:32.494Z,16.90
2019-02-12T17:20:37.160Z,17.10
2019-02-12T17:24:21.789Z,18.17
2019-02-12T17:27:59.510Z,18.57
2019-02-12T17:31:44.129Z,18.40
2019-02-12T17:35:29.199Z,17.53
2019-02-12T17:39:13.887Z,16.63
2019-02-12T17:42:58.523Z,16.83
2019-02-12T17:46:43.182Z,17.10
2019-02-12T17:50:27.821Z,17.03
2019-02-12T17:54:12.511Z,18.13
2019-02-12T17:57:57.119Z,20.13
2019-02-12T18:01:34.305Z,18.67
2019-02-12T18:05:18.978Z,18.97
2019-02-12T18:09:04.001Z,18.73
2019-02-12T18:12:48.607Z,19.43
2019-02-12T18:16:33.216Z,20.00
2019-02-12T18:20:26.147Z,21.23
2019-02-12T18:24:07.402Z,19.43
2019-02-12T18:27:52.786Z,21.57
2019-02-12T18:31:38.716Z,21.17
2019-02-12T18:35:30.599Z,21.63
2019-02-12T18:43:18.904Z,21.70
2019-02-12T18:47:03.562Z,21.13
2019-02-12T18:50:48.302Z,22.23
2019-02-12T18:54:33.070Z,21.43
2019-02-12T18:58:17.694Z,20.50
2019-02-12T19:01:56.132Z,23.03
2019-02-12T19:05:40.764Z,21.70
2019-02-12T19:16:54.641Z,20.77
2019-02-12T19:20:40.006Z,19.47
2019-02-12T19:28:29.899Z,20.13
2019-02-12T19:32:14.539Z,19.97
2019-02-12T19:35:40.510Z,21.40
2019-02-12T19:39:06.911Z,23.23
2019-02-12T19:42:32.486Z,24.27
2019-02-12T19:45:58.682Z,21.50
2019-02-12T19:49:24.989Z,22.43
2019-02-12T19:52:50.730Z,23.20
2019-02-12T19:56:20.444Z,23.33
2019-02-12T19:59:46.416Z,21.37
2019-02-12T20:03:12.546Z,23.77
2019-02-12T20:06:39.412Z,22.00
2019-02-12T20:10:05.777Z,22.77
2019-02-12T20:13:40.724Z,20.50
2019-02-12T20:17:08.349Z,21.70
2019-02-12T20:20:36.572Z,21.73
2019-02-12T20:24:06.179Z,20.70
2019-02-12T20:27:36.254Z,22.03
2019-02-12T20:31:06.090Z,23.30
2019-02-12T20:34:38.614Z,23.20
2019-02-12T20:38:06.880Z,21.03
2019-02-12T20:41:32.589Z,21.53
2019-02-12T20:44:58.514Z,20.80
2019-02-12T20:48:27.826Z,23.20
2019-02-12T20:51:57.366Z,23.53
2019-02-12T20:55:25.642Z,22.30
2019-02-12T20:58:51.723Z,23.03
2019-02-12T21:02:18.337Z,22.63
2019-02-12T21:05:50.040Z,21.90
2019-02-12T21:09:16.600Z,23.20
2019-02-12T21:12:42.299Z,21.60
2019-02-12T21:16:08.692Z,19.97
2019-02-12T21:19:34.723Z,22.27
2019-02-12T21:23:01.136Z,23.23
2019-02-12T21:26:26.902Z,21.60
2019-02-12T21:29:52.550Z,22.93
2019-02-12T21:33:18.757Z,21.93
2019-02-12T21:36:45.088Z,21.67
2019-02-12T21:40:14.963Z,23.73
2019-02-12T21:43:40.543Z,22.10
2019-02-12T21:47:08.681Z,21.40
2019-02-12T21:50:34.251Z,21.33
2019-02-12T21:53:59.890Z,21.60
2019-02-12T21:57:31.805Z,23.40
2019-02-12T22:00:55.513Z,22.30
2019-02-12T22:04:21.267Z,21.50
2019-02-12T22:07:46.976Z,20.63
2019-02-12T22:11:13.089Z,21.53
2019-02-12T22:14:38.891Z,23.33
2019-02-12T22:18:04.663Z,22.40
2019-02-12T22:21:30.300Z,21.90
2019-02-12T22:24:56.045Z,22.00
2019-02-12T22:28:21.643Z,20.57
2019-02-12T22:31:47.586Z,23.77
2019-02-12T22:35:14.626Z,23.63
2019-02-12T22:38:40.485Z,22.70
2019-02-12T22:42:06.169Z,23.67
2019-02-12T22:45:31.787Z,24.23
2019-02-12T22:48:57.428Z,27.00
2019-02-12T22:52:25.448Z,24.00
2019-02-12T22:55:51.088Z,24.70
2019-02-12T22:59:16.738Z,24.37
2019-02-12T23:02:42.646Z,26.40
2019-02-12T23:06:08.717Z,23.40
2019-02-12T23:09:34.347Z,24.57
2019-02-12T23:13:00.011Z,24.47
2019-02-12T23:16:25.686Z,24.30
2019-02-12T23:19:51.645Z,25.17
2019-02-12T23:23:17.760Z,23.67
2019-02-12T23:26:43.336Z,22.80
2019-02-12T23:30:09.495Z,26.53
2019-02-12T23:33:35.160Z,24.83
2019-02-12T23:37:00.826Z,25.13
2019-02-12T23:40:26.455Z,22.40
2019-02-12T23:43:52.066Z,24.33
2019-02-12T23:47:17.821Z,24.13
2019-02-12T23:50:43.479Z,23.30
2019-02-12T23:54:09.108Z,23.33
2019-02-12T23:57:35.143Z,23.90
